createdAt,value
2018-03-31T11:51:46.477Z,8.30
2018-03-31T12:36:13.500Z,11.10
2018-03-31T12:37:13.467Z,11.50
2018-03-31T14:19:24.226Z,13.60
2018-03-31T14:20:11.844Z,11.90
2018-03-31T14:21:11.883Z,13.10
2018-03-31T14:22:11.849Z,12.00
2018-03-31T14:23:11.841Z,10.00
2018-03-31T14:24:11.846Z,10.30
2018-03-31T14:51:13.033Z,13.50
2018-03-31T14:52:12.003Z,8.30
2018-03-31T14:53:11.983Z,16.90
2018-03-31T17:39:46.018Z,15.00
2018-03-31T18:45:51.041Z,17.60
2018-03-31T18:46:19.017Z,12.90
2018-03-31T18:47:19.012Z,16.50
2018-03-31T19:00:57.377Z,15.80
2018-03-31T19:01:51.477Z,18.10
2018-03-31T19:02:51.488Z,12.20
2018-03-31T19:16:33.349Z,13.00
2018-03-31T19:17:05.633Z,12.50
2018-03-31T21:03:00.838Z,12.00
2018-03-31T21:04:00.987Z,11.70
2018-03-31T21:05:00.917Z,14.70
2018-03-31T21:06:21.859Z,9.60
2018-03-31T21:07:00.895Z,13.60
2018-03-31T21:08:01.077Z,14.10
2018-03-31T21:09:00.844Z,17.20
2018-03-31T21:10:00.735Z,18.20
2018-03-31T21:39:28.691Z,11.60
2018-03-31T21:40:27.678Z,16.30
2018-03-31T22:12:58.005Z,21.20
2018-03-31T22:13:19.378Z,21.60
2018-03-31T22:14:19.363Z,24.00
2018-03-31T22:15:19.370Z,22.60
2018-03-31T22:16:19.366Z,17.70
2018-03-31T22:17:40.496Z,8.90
2018-03-31T22:18:19.368Z,11.20
2018-03-31T22:19:19.357Z,14.40
2018-03-31T22:20:19.343Z,18.80
2018-03-31T22:21:19.330Z,20.30
2018-03-31T22:25:24.246Z,18.20
2018-03-31T22:26:22.665Z,11.20
2018-03-31T22:30:37.559Z,8.30
2018-03-31T22:31:26.887Z,16.40
2018-03-31T22:32:53.291Z,20.70
2018-03-31T22:33:26.874Z,17.00
2018-03-31T22:34:26.878Z,19.80
2018-03-31T22:35:27.131Z,16.10
2018-03-31T22:36:26.877Z,16.50
2018-03-31T22:37:26.879Z,13.90
2018-03-31T22:38:48.006Z,16.60
2018-03-31T22:39:26.866Z,15.80
2018-03-31T22:40:26.864Z,20.70
2018-03-31T22:41:26.858Z,21.50
2018-03-31T22:42:26.886Z,17.50
2018-03-31T22:43:55.504Z,12.90
2018-03-31T22:44:26.842Z,11.10
2018-03-31T22:45:26.859Z,15.00
2018-03-31T22:46:26.832Z,11.60
2018-03-31T22:47:26.833Z,15.60
2018-03-31T22:48:48.007Z,20.60
2018-03-31T22:49:26.826Z,14.50
2018-03-31T22:57:44.637Z,11.20
2018-03-31T22:58:12.998Z,16.30
2018-03-31T22:59:12.983Z,9.90
2018-03-31T23:00:13.011Z,11.70
2018-03-31T23:01:12.995Z,14.90
2018-03-31T23:02:12.984Z,15.10
2018-03-31T23:03:16.111Z,11.90
2018-03-31T23:04:12.973Z,14.10
2018-03-31T23:05:12.965Z,11.00
2018-03-31T23:06:12.980Z,13.60
2018-03-31T23:07:12.965Z,13.10
2018-03-31T23:08:13.097Z,12.70
2018-03-31T23:09:12.968Z,11.30
2018-03-31T23:10:12.964Z,13.80
2018-03-31T23:11:12.950Z,12.80
2018-03-31T23:12:12.956Z,19.20
2018-03-31T23:13:52.118Z,13.20
2018-03-31T23:14:12.926Z,13.20
2018-03-31T23:15:12.938Z,14.50
2018-03-31T23:16:12.918Z,20.10
2018-03-31T23:17:13.082Z,17.90
2018-03-31T23:18:12.928Z,21.90
2018-03-31T23:19:27.118Z,28.30
2018-03-31T23:20:12.920Z,25.70
2018-03-31T23:21:12.926Z,23.40
2018-03-31T23:22:12.900Z,26.50
2018-03-31T23:23:12.887Z,26.90
